Portada
METAR-TAF:

METAR-TAF

Aeropuertos :

Estambul Atatürk, Turquía

Aeropuerto Internacional Atatürk

latitud: 40-58N, longitud: 028-49E, altitud: 48 m

Observación

El informe se hizo hace 15 minutos, a las 06:50 UTC
Viento 9 kt del suroeste
Temperatura 26°C
Humedad 70%
Presión 1014 hPa
Visibilidad 10 km o más
sin nubes por debajo de 1500 m y sin presencia de cumulonimbus.

METAR: LTBA 240650Z 23009KT CAVOK 26/20 Q1014 NOSIG RMK RWY17L 23011KT RWY05 21009KT RWY23 24009KT

Hora: 10:05 (07:05 UTC)

Pronóstico

El informe se hizo hace 14 horas y 25 minutos, a las 16:40 UTC
Pronóstico válido del 23 a las 18 UTC al 24 a las 24 UTC
Viento 2 kt con dirección variable
Visibilidad 10 km o más
sin nubes por debajo de 1500 m y sin presencia de cumulonimbus.
Temporalmente
del 24 a las 08 UTC al 24 a las 12 UTC
Nubes dispersas a una altura de 4000 ft

TAF: LTBA 231640Z 2318/2424 VRB02KT CAVOK TEMPO 2408/2412 SCT040

Observaciones y pronósticos meteorológicos de más de 4000 aeropuertos (mensajes METAR y TAF).

Los puntos amarillos y rojos representan las estaciones disponibles.

Ponga el ratón en el punto deseado para ver el nombre de la estación.

Haga clic para ver las observaciones y los pronósticos meteorológicos.

Para cambiar el mapa : haga clic en los botones verdes con una cruz de color negro para hacer un zoom, en el botón verde con un guión para alejar o en las flechas verdes para mapas adyacentes.


METAR-TAF: